Bellflower, IL (61724)

6:17 PM CDT on September 01, 2015 (GMT -0500)
Fisher Elmwood Drive | | Change Station
CLOSE
Current Station
Personal Weather Station
Location: Fisher, IL
Elevation: 722 ft
Nearby Weather Stations

Elev 722 ft 40.32 °N, 88.35 °W | Updated 5 minutes ago

Partly Cloudy
Partly Cloudy
82.5 °F
Feels Like 89 °F
N
3.2
Wind Variable Wind from ESE

Today
High -- | Low -- °F
--% Chance of Precip.
Yesterday
High -- | Low -- °F
Precip. -- in
6:21 AM 7:26 PM
Waning Gibbous, 85% visible
Pressure 30.05 in
Visibility 10.0 miles
Clouds Clear
Heat Index 89 °F
Dew Point 74 °F
Humidity 77%
Rainfall 0.08 in
Snow Depth Not available.
UV 1 out of 12
Pollen 10.40 out of 12
Air Quality Not available.
Flu Activity Not available.
METAR KTIP 012255Z AUTO 15008KT 10SM CLR 29/24 A3005 RMK AO2 T02920236
Pressure 30.05 in
Visibility 10.0 miles
Clouds Clear
Heat Index 89 °F
Dew Point 74 °F
Humidity 77%
Rainfall 0.08 in
Snow Depth Not available.
UV 1 out of 12
Pollen 10.40 out of 12
Air Quality Not available.
Flu Activity Not available.
METAR KTIP 012255Z AUTO 15008KT 10SM CLR 29/24 A3005 RMK AO2 T02920236

10-Day Weather Forecast

×

Almanac

Astronomy

Sep. 01, 2015 Rise Set
Actual Time
Civil Twilight
Nautical Twilight
Astronomical Twilight
Moon
Length of Visible Light
Length of Day
Tomorrow will be .
, % of the Moon is Illuminated

Today's Extremes

State Highs State Lows

Community

WunderPhotos

Upload Photos

1,851,638 photos uploaded!

WunderBlogs® & News

Nearby

Air Quality

  Air Quality AQ Index Pollutant
Not available.

Snow Depth

Station Depth Elevation

Earthquake Activity

City Distance Mag. Time & Date
Minimum magnitude displayed is 2.5.

Coastal Water Temperatures

Place Temperature

Stations

Nearby Weather Stations

Station Location Temp. Windchill Dew Point Humidity Wind Precip. Elev Updated Type